Time;durP1;ratioP1;P1;durP2;ratioP2;P2;SDS_P1;SDS_P2;PMS_P1;PMS_P2;Temp;Humidity;BMP_temperature;BMP_pressure;BME280_temperature;BME280_humidity;BME280_pressure;Samples;Min_cycle;Max_cycle;Signal;HPM_P1;HPM_P2
2022/06/23 00:00:19;;;;;;;9.57;6.68;;;;;;;;;;5049915;28;20206;-73
2022/06/23 00:02:47;;;;;;;15.50;7.22;;;;;;;;;;5050342;28;20381;-73
2022/06/23 00:05:16;;;;;;;16.02;7.82;;;;;;;;;;5050789;28;20210;-73
2022/06/23 00:07:45;;;;;;;14.82;7.28;;;;;;;;;;5050532;28;20248;-73
2022/06/23 00:10:12;;;;;;;12.07;7.28;;;;;;;;;;5050837;28;20241;-73
2022/06/23 00:12:40;;;;;;;13.23;7.05;;;;;;;;;;5050838;28;20260;-74
2022/06/23 00:15:08;;;;;;;13.00;7.53;;;;;;;;;;5050477;28;20248;-74
2022/06/23 00:17:58;;;;;;;12.20;7.10;;;;;;;;;;5050646;28;20257;-73
2022/06/23 00:20:32;;;;;;;13.10;7.03;;;;;;;;;;5047954;28;20214;-74
2022/06/23 00:23:02;;;;;;;11.68;6.85;;;;;;;;;;5051195;28;20229;-75
2022/06/23 00:25:33;;;;;;;14.60;7.25;;;;;;;;;;5050689;28;20237;-73
2022/06/23 00:28:01;;;;;;;51.97;7.45;;;;;;;;;;5051028;28;20215;-73
2022/06/23 00:30:30;;;;;;;22.60;7.78;;;;;;;;;;5050838;28;20255;-75
2022/06/23 00:33:05;;;;;;;50.80;7.97;;;;;;;;;;5051566;28;20228;-74
2022/06/23 00:35:32;;;;;;;26.50;7.65;;;;;;;;;;5051471;28;20510;-75
2022/06/23 00:37:59;;;;;;;7.47;6.78;;;;;;;;;;5050373;28;20225;-73
2022/06/23 00:40:26;;;;;;;9.38;7.78;;;;;;;;;;5050308;28;20237;-74
2022/06/23 00:43:02;;;;;;;9.73;7.07;;;;;;;;;;5050280;28;20264;-74
2022/06/23 00:45:32;;;;;;;13.20;8.27;;;;;;;;;;5032912;28;20206;-74
2022/06/23 00:47:59;;;;;;;11.15;7.65;;;;;;;;;;5050338;28;20203;-72
2022/06/23 00:50:38;;;;;;;13.52;7.60;;;;;;;;;;5050287;28;20242;-74
2022/06/23 00:53:11;;;;;;;11.23;7.60;;;;;;;;;;5063839;28;20229;-74
2022/06/23 00:55:43;;;;;;;12.27;7.10;;;;;;;;;;5069447;28;20248;-73
2022/06/23 00:58:19;;;;;;;11.85;7.05;;;;;;;;;;5076096;28;20296;-74
2022/06/23 01:00:49;;;;;;;13.98;6.90;;;;;;;;;;5088857;28;20228;-73
2022/06/23 01:03:26;;;;;;;12.02;6.53;;;;;;;;;;5088561;28;20228;-73
2022/06/23 01:05:57;;;;;;;14.45;7.82;;;;;;;;;;5089585;28;20201;-74
2022/06/23 01:08:29;;;;;;;12.93;7.50;;;;;;;;;;5090329;28;20240;-73
2022/06/23 01:11:09;;;;;;;17.30;7.82;;;;;;;;;;5090326;28;20251;-74
2022/06/23 01:13:43;;;;;;;15.98;7.55;;;;;;;;;;5090099;28;20229;-73
2022/06/23 01:16:14;;;;;;;14.18;7.70;;;;;;;;;;5090368;28;20239;-75
2022/06/23 01:18:44;;;;;;;10.85;6.57;;;;;;;;;;5090604;28;20708;-74
2022/06/23 01:21:17;;;;;;;10.32;6.63;;;;;;;;;;5089790;28;20292;-74
2022/06/23 01:24:03;;;;;;;11.45;6.80;;;;;;;;;;5109697;28;20260;-74
2022/06/23 01:26:31;;;;;;;10.45;6.72;;;;;;;;;;5110519;28;20242;-74
2022/06/23 01:29:01;;;;;;;14.07;7.05;;;;;;;;;;5110775;28;20200;-74
2022/06/23 01:31:34;;;;;;;16.17;6.32;;;;;;;;;;5110285;28;20691;-74
2022/06/23 01:34:09;;;;;;;11.77;6.45;;;;;;;;;;5110372;28;20220;-74
2022/06/23 01:36:41;;;;;;;12.93;6.10;;;;;;;;;;5110917;28;20249;-74
2022/06/23 01:39:14;;;;;;;13.90;6.50;;;;;;;;;;5109850;28;20256;-74
2022/06/23 01:41:56;;;;;;;14.55;6.07;;;;;;;;;;5110589;28;20235;-74
2022/06/23 01:44:42;;;;;;;13.75;6.72;;;;;;;;;;5100845;28;20226;-73
2022/06/23 01:47:36;;;;;;;12.88;6.07;;;;;;;;;;5090183;28;20547;-75
2022/06/23 01:50:24;;;;;;;12.27;6.07;;;;;;;;;;5051744;28;20681;-73
2022/06/23 01:53:03;;;;;;;7.13;5.70;;;;;;;;;;5073458;28;20274;-73
2022/06/23 01:55:31;;;;;;;9.60;5.82;;;;;;;;;;5089473;28;20694;-73
2022/06/23 01:58:02;;;;;;;12.02;7.93;;;;;;;;;;5089788;28;20227;-74
2022/06/23 02:00:29;;;;;;;14.48;7.43;;;;;;;;;;5089634;28;20205;-73
2022/06/23 02:02:59;;;;;;;10.23;6.95;;;;;;;;;;5088795;28;20240;-74
2022/06/23 02:05:33;;;;;;;9.63;5.82;;;;;;;;;;5089467;28;20666;-74
2022/06/23 02:08:03;;;;;;;11.48;7.25;;;;;;;;;;5090076;28;20617;-75
2022/06/23 02:10:32;;;;;;;10.73;6.03;;;;;;;;;;5089606;28;20239;-73
2022/06/23 02:13:10;;;;;;;14.07;6.43;;;;;;;;;;5092448;28;20328;-74
2022/06/23 02:15:52;;;;;;;13.30;6.05;;;;;;;;;;5093488;28;20224;-73
2022/06/23 02:18:24;;;;;;;10.45;6.20;;;;;;;;;;5093514;28;20256;-74
2022/06/23 02:20:57;;;;;;;10.48;6.45;;;;;;;;;;5093828;28;20998;-73
2022/06/23 02:23:49;;;;;;;14.38;7.78;;;;;;;;;;5084810;28;20752;-74
2022/06/23 02:26:19;;;;;;;8.57;6.05;;;;;;;;;;5073042;28;20251;-74
2022/06/23 02:29:16;;;;;;;11.77;5.70;;;;;;;;;;5072552;28;20232;-75
2022/06/23 02:31:48;;;;;;;12.73;6.13;;;;;;;;;;5061377;28;20687;-75
2022/06/23 02:34:21;;;;;;;11.65;6.60;;;;;;;;;;5074221;28;20229;-75
2022/06/23 02:37:03;;;;;;;12.90;6.63;;;;;;;;;;5077425;28;20224;-75
2022/06/23 02:39:48;;;;;;;12.43;6.93;;;;;;;;;;5074733;28;20450;-73
2022/06/23 02:42:25;;;;;;;10.38;5.90;;;;;;;;;;5093100;28;20231;-76
2022/06/23 02:44:55;;;;;;;11.20;6.20;;;;;;;;;;5093118;28;20205;-74
2022/06/23 02:47:28;;;;;;;11.80;5.35;;;;;;;;;;5092182;28;20609;-75
2022/06/23 02:49:55;;;;;;;10.95;5.43;;;;;;;;;;5092879;28;20271;-74
2022/06/23 02:52:25;;;;;;;8.57;5.28;;;;;;;;;;5093219;28;20232;-74
2022/06/23 02:55:14;;;;;;;8.85;5.38;;;;;;;;;;5092863;28;20208;-74
2022/06/23 02:57:44;;;;;;;5.25;3.60;;;;;;;;;;5076111;28;20263;-74
2022/06/23 03:00:17;;;;;;;5.18;3.28;;;;;;;;;;5092912;28;20177;-74
2022/06/23 03:02:55;;;;;;;4.07;3.33;;;;;;;;;;5093044;28;20225;-73
2022/06/23 03:05:40;;;;;;;9.23;4.05;;;;;;;;;;5092906;28;20530;-74
2022/06/23 03:08:12;;;;;;;7.68;4.15;;;;;;;;;;5092587;28;20250;-73
2022/06/23 03:10:44;;;;;;;6.30;4.57;;;;;;;;;;5092859;28;20239;-73
2022/06/23 03:13:29;;;;;;;6.38;4.75;;;;;;;;;;5091490;28;20254;-75
2022/06/23 03:16:02;;;;;;;6.80;4.32;;;;;;;;;;5092536;28;20208;-74
2022/06/23 03:18:33;;;;;;;4.60;4.20;;;;;;;;;;5092109;28;20225;-75
2022/06/23 03:21:05;;;;;;;5.07;4.55;;;;;;;;;;5093281;28;20204;-76
2022/06/23 03:23:35;;;;;;;5.72;4.65;;;;;;;;;;5092125;28;20755;-74
2022/06/23 03:26:08;;;;;;;8.18;5.45;;;;;;;;;;5074535;28;20232;-74
2022/06/23 03:28:49;;;;;;;7.50;5.97;;;;;;;;;;5092166;28;20240;-74
2022/06/23 03:31:28;;;;;;;6.97;5.78;;;;;;;;;;5090757;28;20189;-73
2022/06/23 03:33:59;;;;;;;9.30;5.75;;;;;;;;;;5092917;28;20319;-74
2022/06/23 03:36:32;;;;;;;6.47;5.47;;;;;;;;;;5092499;28;20700;-72
2022/06/23 03:42:05;;;;;;;9.15;6.20;;;;;;;;;;5092172;28;20228;-72
2022/06/23 03:44:42;;;;;;;7.60;6.22;;;;;;;;;;5091759;28;20249;-73
2022/06/23 03:47:22;;;;;;;8.93;6.82;;;;;;;;;;5092538;28;20208;-73
2022/06/23 03:50:08;;;;;;;10.35;6.35;;;;;;;;;;5092251;28;20247;-74
2022/06/23 03:52:41;;;;;;;9.82;6.95;;;;;;;;;;5092108;28;20256;-74
2022/06/23 03:55:08;;;;;;;20.10;13.10;;;;;;;;;;5092885;28;20735;-75
2022/06/23 03:57:46;;;;;;;15.27;9.82;;;;;;;;;;5092334;28;20709;-74
2022/06/23 04:00:18;;;;;;;12.20;7.40;;;;;;;;;;5091954;28;20189;-75
2022/06/23 04:02:48;;;;;;;9.65;7.80;;;;;;;;;;5092770;28;20224;-75
2022/06/23 04:05:16;;;;;;;8.70;7.22;;;;;;;;;;5092149;28;20205;-73
2022/06/23 04:07:53;;;;;;;11.30;7.13;;;;;;;;;;5091681;28;20269;-74
2022/06/23 04:10:31;;;;;;;9.90;8.40;;;;;;;;;;5091283;28;20221;-73
2022/06/23 04:13:14;;;;;;;10.98;8.27;;;;;;;;;;5091334;28;20267;-74
2022/06/23 04:15:42;;;;;;;13.50;7.90;;;;;;;;;;5092269;28;20275;-74
2022/06/23 04:18:12;;;;;;;10.73;8.32;;;;;;;;;;5091842;28;20221;-74
2022/06/23 04:20:41;;;;;;;14.98;8.18;;;;;;;;;;5092058;28;20661;-74
2022/06/23 04:23:11;;;;;;;11.55;8.07;;;;;;;;;;5090820;28;20250;-74
2022/06/23 04:25:44;;;;;;;12.93;7.97;;;;;;;;;;5070925;28;20209;-74
2022/06/23 04:28:18;;;;;;;10.90;8.10;;;;;;;;;;5068586;28;20229;-74
2022/06/23 04:30:46;;;;;;;23.17;7.47;;;;;;;;;;5081113;28;20228;-74
2022/06/23 04:33:16;;;;;;;8.73;7.78;;;;;;;;;;5091273;28;20740;-73
2022/06/23 04:35:47;;;;;;;9.93;7.78;;;;;;;;;;5088432;28;20205;-74
2022/06/23 04:38:21;;;;;;;9.27;7.60;;;;;;;;;;5091259;28;20834;-74
2022/06/23 04:40:57;;;;;;;9.30;7.47;;;;;;;;;;5090259;28;20247;-74
2022/06/23 04:43:46;;;;;;;8.18;7.38;;;;;;;;;;5089377;28;20224;-73
2022/06/23 04:46:17;;;;;;;8.52;6.88;;;;;;;;;;5091881;28;20201;-75
2022/06/23 04:48:48;;;;;;;8.38;6.72;;;;;;;;;;5091128;28;20208;-75
2022/06/23 04:51:18;;;;;;;10.77;7.75;;;;;;;;;;5091619;28;20208;-73
2022/06/23 04:53:54;;;;;;;10.23;7.03;;;;;;;;;;5091087;28;20229;-74
2022/06/23 04:56:40;;;;;;;21.70;6.50;;;;;;;;;;5090909;28;20228;-73
2022/06/23 04:59:07;;;;;;;7.50;6.80;;;;;;;;;;5090640;28;20259;-74
2022/06/23 05:01:37;;;;;;;9.45;7.03;;;;;;;;;;5090566;28;20243;-74
2022/06/23 05:04:11;;;;;;;11.95;7.88;;;;;;;;;;5090987;28;20286;-74
2022/06/23 05:06:41;;;;;;;9.10;7.78;;;;;;;;;;5072932;28;20727;-75
2022/06/23 05:09:14;;;;;;;10.63;7.57;;;;;;;;;;5091085;28;20627;-74
2022/06/23 05:11:45;;;;;;;12.55;7.25;;;;;;;;;;5090013;28;20254;-74
2022/06/23 05:14:15;;;;;;;10.93;8.20;;;;;;;;;;5090813;28;20252;-73
2022/06/23 05:16:48;;;;;;;9.95;7.82;;;;;;;;;;5091240;28;20627;-73
2022/06/23 05:19:21;;;;;;;13.05;7.35;;;;;;;;;;5089982;28;20262;-74
2022/06/23 05:21:54;;;;;;;13.68;7.20;;;;;;;;;;5090080;28;20240;-75
2022/06/23 05:24:23;;;;;;;6.72;6.05;;;;;;;;;;5090897;28;20724;-74
2022/06/23 05:26:54;;;;;;;7.57;6.80;;;;;;;;;;5090418;28;20211;-74
2022/06/23 05:29:29;;;;;;;6.63;6.03;;;;;;;;;;5090357;28;20259;-73
2022/06/23 05:32:00;;;;;;;8.85;6.85;;;;;;;;;;5089394;28;20239;-74
2022/06/23 05:34:29;;;;;;;14.07;7.00;;;;;;;;;;5090233;28;20235;-74
2022/06/23 05:36:56;;;;;;;7.30;6.30;;;;;;;;;;5083893;28;20700;-73
2022/06/23 05:39:43;;;;;;;9.77;6.68;;;;;;;;;;5070085;28;20655;-73
2022/06/23 05:42:16;;;;;;;9.25;6.85;;;;;;;;;;5070115;28;20642;-74
2022/06/23 05:44:47;;;;;;;6.78;5.97;;;;;;;;;;5069979;28;20466;-73
2022/06/23 05:47:17;;;;;;;5.65;5.15;;;;;;;;;;5069506;28;20798;-74
2022/06/23 05:49:49;;;;;;;6.55;5.28;;;;;;;;;;5068506;28;20206;-73
2022/06/23 05:52:18;;;;;;;22.10;5.57;;;;;;;;;;5068432;28;20266;-75
2022/06/23 05:54:55;;;;;;;5.57;5.03;;;;;;;;;;5068758;28;20273;-75
2022/06/23 05:57:38;;;;;;;7.45;5.25;;;;;;;;;;5068504;28;20240;-73
2022/06/23 06:00:14;;;;;;;7.20;5.32;;;;;;;;;;5069396;28;20225;-74
2022/06/23 06:02:55;;;;;;;5.63;5.10;;;;;;;;;;5068934;28;20268;-74
2022/06/23 06:05:26;;;;;;;5.78;5.25;;;;;;;;;;5069009;28;20186;-74
2022/06/23 06:07:53;;;;;;;6.20;5.40;;;;;;;;;;5051773;28;20201;-74
2022/06/23 06:10:23;;;;;;;6.00;5.22;;;;;;;;;;5068998;28;20248;-75
2022/06/23 06:12:51;;;;;;;9.63;5.63;;;;;;;;;;5068409;28;20221;-73
2022/06/23 06:15:23;;;;;;;6.55;5.43;;;;;;;;;;5068760;28;20201;-74
2022/06/23 06:17:52;;;;;;;6.85;5.43;;;;;;;;;;5069318;28;20709;-74
2022/06/23 06:20:21;;;;;;;6.00;5.45;;;;;;;;;;5069266;28;20706;-74
2022/06/23 06:23:01;;;;;;;5.97;5.47;;;;;;;;;;5069367;28;20800;-74
2022/06/23 06:25:28;;;;;;;6.20;5.47;;;;;;;;;;5068805;28;20239;-76
2022/06/23 06:27:56;;;;;;;6.60;6.03;;;;;;;;;;5068318;28;20232;-74
2022/06/23 06:30:29;;;;;;;5.32;4.90;;;;;;;;;;5068774;28;20564;-72
2022/06/23 06:32:58;;;;;;;6.78;5.25;;;;;;;;;;5068740;28;20312;-73
2022/06/23 06:35:25;;;;;;;5.30;4.80;;;;;;;;;;5069137;28;20656;-73
2022/06/23 06:38:01;;;;;;;6.82;6.05;;;;;;;;;;5069029;28;20644;-74
2022/06/23 06:40:29;;;;;;;6.03;5.28;;;;;;;;;;5069550;28;20279;-74
2022/06/23 06:42:59;;;;;;;5.90;5.32;;;;;;;;;;5069343;28;20264;-74
2022/06/23 06:45:30;;;;;;;7.10;5.10;;;;;;;;;;5069608;28;20221;-74
2022/06/23 06:47:58;;;;;;;7.40;5.32;;;;;;;;;;5069690;28;20206;-73
2022/06/23 06:50:31;;;;;;;5.13;4.63;;;;;;;;;;5069275;28;20209;-74
2022/06/23 06:53:01;;;;;;;5.10;4.68;;;;;;;;;;5077228;28;20236;-73
2022/06/23 06:55:36;;;;;;;6.60;4.93;;;;;;;;;;5088668;28;20695;-73
2022/06/23 06:58:06;;;;;;;8.30;5.07;;;;;;;;;;5089604;28;20257;-73
2022/06/23 07:00:36;;;;;;;6.70;5.22;;;;;;;;;;5091158;28;20217;-73
2022/06/23 07:03:06;;;;;;;5.68;4.63;;;;;;;;;;5092814;28;20242;-74
2022/06/23 07:05:42;;;;;;;6.63;4.45;;;;;;;;;;5092814;28;20201;-74
2022/06/23 07:08:12;;;;;;;6.78;5.05;;;;;;;;;;5093101;28;20209;-74
2022/06/23 07:11:01;;;;;;;4.28;3.83;;;;;;;;;;5092989;28;20235;-74
2022/06/23 07:13:44;;;;;;;5.63;3.95;;;;;;;;;;5092362;28;20256;-73
2022/06/23 07:16:20;;;;;;;3.78;3.47;;;;;;;;;;5093139;28;20228;-74
2022/06/23 07:18:54;;;;;;;6.38;4.30;;;;;;;;;;5092200;28;20633;-75
2022/06/23 07:21:44;;;;;;;6.85;4.57;;;;;;;;;;5091210;28;20304;-74
2022/06/23 07:24:12;;;;;;;7.22;4.05;;;;;;;;;;5053586;28;20220;-73
2022/06/23 07:26:43;;;;;;;4.68;4.13;;;;;;;;;;5106308;28;20219;-73
2022/06/23 07:29:21;;;;;;;5.95;4.20;;;;;;;;;;5090641;28;20254;-73
2022/06/23 07:31:48;;;;;;;5.45;3.78;;;;;;;;;;5090917;28;20252;-74
2022/06/23 07:34:17;;;;;;;5.40;2.80;;;;;;;;;;5110764;28;20243;-75
2022/06/23 07:36:51;;;;;;;3.33;2.50;;;;;;;;;;5112433;28;20253;-74
2022/06/23 07:39:22;;;;;;;3.58;2.40;;;;;;;;;;5112593;28;20260;-74
2022/06/23 07:42:08;;;;;;;4.60;2.25;;;;;;;;;;5113075;28;20212;-74
2022/06/23 07:44:41;;;;;;;3.63;2.10;;;;;;;;;;5111892;28;20224;-73
2022/06/23 07:47:09;;;;;;;8.13;1.88;;;;;;;;;;5104244;28;20222;-74
2022/06/23 07:49:37;;;;;;;3.90;1.90;;;;;;;;;;5091399;28;20654;-75
2022/06/23 07:52:05;;;;;;;5.70;1.83;;;;;;;;;;5089974;28;20254;-74
2022/06/23 07:54:36;;;;;;;3.35;1.73;;;;;;;;;;5091667;28;20471;-75
2022/06/23 07:57:04;;;;;;;3.75;1.77;;;;;;;;;;5090934;28;20638;-74
2022/06/23 07:59:41;;;;;;;2.90;1.90;;;;;;;;;;5090826;28;20685;-74
2022/06/23 08:02:14;;;;;;;6.13;1.70;;;;;;;;;;5090361;28;20747;-74
2022/06/23 08:04:51;;;;;;;4.55;1.83;;;;;;;;;;5090740;28;20205;-74
2022/06/23 08:07:19;;;;;;;3.72;1.70;;;;;;;;;;5089914;28;20185;-74
2022/06/23 08:09:52;;;;;;;4.65;2.03;;;;;;;;;;5089859;28;20287;-74
2022/06/23 08:18:08;;;;;;;5.88;2.30;;;;;;;;;;5090043;28;20248;-74
2022/06/23 08:20:37;;;;;;;4.28;2.15;;;;;;;;;;5089982;28;20266;-73
2022/06/23 08:23:06;;;;;;;7.28;2.35;;;;;;;;;;5096722;28;20231;-74
2022/06/23 08:25:34;;;;;;;4.90;1.88;;;;;;;;;;5100083;28;20310;-73
2022/06/23 08:28:02;;;;;;;9.45;2.47;;;;;;;;;;5089464;28;20196;-73
2022/06/23 08:30:29;;;;;;;4.82;2.15;;;;;;;;;;5088273;28;20232;-74
2022/06/23 08:32:56;;;;;;;9.05;2.67;;;;;;;;;;5069496;28;20225;-75
2022/06/23 08:35:38;;;;;;;6.20;2.22;;;;;;;;;;5070686;28;20671;-72
2022/06/23 08:38:08;;;;;;;5.05;2.13;;;;;;;;;;5070218;28;20185;-74
2022/06/23 08:40:55;;;;;;;10.27;2.20;;;;;;;;;;5051561;28;20244;-73
2022/06/23 08:43:34;;;;;;;5.50;2.05;;;;;;;;;;5086625;28;20220;-73
2022/06/23 08:46:01;;;;;;;6.85;2.30;;;;;;;;;;5089798;28;20291;-73
2022/06/23 08:48:28;;;;;;;6.88;2.33;;;;;;;;;;5090711;28;20204;-74
2022/06/23 08:51:04;;;;;;;4.57;1.95;;;;;;;;;;5090223;28;20658;-74
2022/06/23 08:53:40;;;;;;;7.00;2.30;;;;;;;;;;5090766;28;20231;-75
2022/06/23 08:56:10;;;;;;;4.50;1.90;;;;;;;;;;5090465;28;20208;-74
2022/06/23 08:58:49;;;;;;;6.78;2.30;;;;;;;;;;5090542;28;20875;-74
2022/06/23 09:01:27;;;;;;;6.57;2.08;;;;;;;;;;5072339;28;20200;-75
2022/06/23 09:03:58;;;;;;;4.28;1.73;;;;;;;;;;5090489;28;20220;-74
2022/06/23 09:06:34;;;;;;;5.90;1.88;;;;;;;;;;5089913;28;20234;-73
2022/06/23 09:09:11;;;;;;;6.10;1.80;;;;;;;;;;5090870;28;20185;-75
2022/06/23 09:11:52;;;;;;;10.93;2.22;;;;;;;;;;5090299;28;20587;-75
2022/06/23 09:14:35;;;;;;;5.10;2.15;;;;;;;;;;5090347;28;20255;-75
2022/06/23 09:17:12;;;;;;;3.90;2.08;;;;;;;;;;5089896;28;20658;-75
2022/06/23 09:19:42;;;;;;;8.15;2.40;;;;;;;;;;5089124;28;20426;-74
2022/06/23 09:22:23;;;;;;;6.38;2.28;;;;;;;;;;5089035;28;20435;-75
2022/06/23 09:24:53;;;;;;;6.75;2.00;;;;;;;;;;5090984;28;20530;-75
2022/06/23 09:27:30;;;;;;;6.13;2.28;;;;;;;;;;5090605;28;20343;-75
2022/06/23 09:30:01;;;;;;;5.13;2.10;;;;;;;;;;5090264;28;20228;-75
2022/06/23 09:32:28;;;;;;;5.65;2.33;;;;;;;;;;5090313;28;20581;-75
2022/06/23 09:35:04;;;;;;;5.40;2.20;;;;;;;;;;5089454;28;20251;-74
2022/06/23 09:37:34;;;;;;;7.82;2.20;;;;;;;;;;5089413;28;20275;-75
2022/06/23 09:40:20;;;;;;;6.60;1.92;;;;;;;;;;5090372;28;20255;-76
2022/06/23 09:43:03;;;;;;;4.07;1.90;;;;;;;;;;5090277;28;20216;-74
2022/06/23 09:45:40;;;;;;;7.30;2.17;;;;;;;;;;5103306;28;20247;-74
2022/06/23 09:48:12;;;;;;;8.50;2.22;;;;;;;;;;5109411;28;20247;-74
2022/06/23 09:50:52;;;;;;;6.18;2.33;;;;;;;;;;5108505;28;20212;-73
2022/06/23 09:53:33;;;;;;;6.65;2.03;;;;;;;;;;5109019;28;20655;-74
2022/06/23 09:56:00;;;;;;;5.25;2.13;;;;;;;;;;5108552;28;20498;-73
2022/06/23 09:58:40;;;;;;;10.95;2.38;;;;;;;;;;5109303;28;20212;-75
2022/06/23 10:01:25;;;;;;;6.10;2.03;;;;;;;;;;5109658;28;20237;-74
2022/06/23 10:03:55;;;;;;;5.28;1.95;;;;;;;;;;5110276;28;20717;-74
2022/06/23 10:06:42;;;;;;;7.88;2.30;;;;;;;;;;5099350;28;20243;-74
2022/06/23 10:09:15;;;;;;;4.35;1.88;;;;;;;;;;5089713;28;20197;-73
2022/06/23 10:12:04;;;;;;;6.78;2.25;;;;;;;;;;5088267;28;20675;-74
2022/06/23 10:14:37;;;;;;;7.65;2.08;;;;;;;;;;5088598;28;20256;-74
2022/06/23 10:17:19;;;;;;;4.10;1.83;;;;;;;;;;5088937;28;20637;-73
2022/06/23 10:19:52;;;;;;;5.93;1.88;;;;;;;;;;5088318;28;20235;-73
2022/06/23 10:22:43;;;;;;;6.18;2.08;;;;;;;;;;5088327;28;20205;-76
2022/06/23 10:25:29;;;;;;;5.43;2.28;;;;;;;;;;5079638;28;20312;-75
2022/06/23 10:28:04;;;;;;;7.38;2.20;;;;;;;;;;5088708;28;20228;-75
2022/06/23 10:30:37;;;;;;;6.22;2.05;;;;;;;;;;5089508;28;20244;-74
2022/06/23 10:33:05;;;;;;;6.03;2.05;;;;;;;;;;5089690;28;20392;-74
2022/06/23 10:35:44;;;;;;;7.53;2.30;;;;;;;;;;5092763;28;20254;-75
2022/06/23 10:38:33;;;;;;;4.72;2.22;;;;;;;;;;5092687;28;20263;-73
2022/06/23 10:41:09;;;;;;;7.00;2.40;;;;;;;;;;5091669;28;20212;-74
2022/06/23 10:43:40;;;;;;;5.15;2.10;;;;;;;;;;5091817;28;20690;-74
2022/06/23 10:46:07;;;;;;;6.85;2.30;;;;;;;;;;5092185;28;20235;-74
2022/06/23 10:48:34;;;;;;;5.43;2.13;;;;;;;;;;5092046;28;20292;-76
2022/06/23 10:51:19;;;;;;;6.68;2.00;;;;;;;;;;5091990;28;20282;-74
2022/06/23 10:53:58;;;;;;;6.15;2.05;;;;;;;;;;5091456;28;20227;-74
2022/06/23 10:56:37;;;;;;;5.35;1.90;;;;;;;;;;5091698;28;20230;-75
2022/06/23 10:59:07;;;;;;;5.00;1.77;;;;;;;;;;5081256;28;20205;-73
2022/06/23 11:01:44;;;;;;;6.03;2.20;;;;;;;;;;5071538;28;20253;-73
2022/06/23 11:04:12;;;;;;;6.65;1.92;;;;;;;;;;5072243;28;20615;-74
2022/06/23 11:06:57;;;;;;;3.42;1.75;;;;;;;;;;5072156;28;20613;-75
2022/06/23 11:09:25;;;;;;;5.88;1.90;;;;;;;;;;5085951;28;20292;-75
2022/06/23 11:11:55;;;;;;;6.38;2.20;;;;;;;;;;5091251;28;20697;-73
2022/06/23 11:14:28;;;;;;;5.72;2.20;;;;;;;;;;5092135;28;20604;-73
2022/06/23 11:17:29;;;;;;;5.57;2.20;;;;;;;;;;5073330;28;20720;-74
2022/06/23 11:20:05;;;;;;;3.60;1.45;;;;;;;;;;5058289;28;20924;-75
2022/06/23 11:22:58;;;;;;;4.95;1.70;;;;;;;;;;5091606;28;20789;-76
2022/06/23 11:25:37;;;;;;;9.60;2.28;;;;;;;;;;5087585;28;20477;-73
2022/06/23 11:28:27;;;;;;;9.05;2.20;;;;;;;;;;5092203;28;20189;-74
2022/06/23 11:30:54;;;;;;;6.65;2.28;;;;;;;;;;5063895;28;20237;-74
2022/06/23 11:33:32;;;;;;;3.85;1.90;;;;;;;;;;5091593;28;20221;-74
2022/06/23 11:36:05;;;;;;;6.95;2.47;;;;;;;;;;5106441;28;20206;-74
2022/06/23 11:38:43;;;;;;;6.25;2.35;;;;;;;;;;5111648;28;20272;-74
2022/06/23 11:41:28;;;;;;;4.65;2.40;;;;;;;;;;5111887;28;20288;-74
2022/06/23 11:44:08;;;;;;;8.82;2.50;;;;;;;;;;5110946;28;20251;-74
2022/06/23 11:46:35;;;;;;;3.50;2.08;;;;;;;;;;5112775;28;20223;-74
2022/06/23 11:49:17;;;;;;;5.10;2.30;;;;;;;;;;5112409;28;20258;-74
2022/06/23 11:51:50;;;;;;;9.23;2.60;;;;;;;;;;5111579;28;20406;-73
2022/06/23 11:54:26;;;;;;;5.78;2.30;;;;;;;;;;5110922;28;20677;-73
2022/06/23 11:56:54;;;;;;;3.13;1.83;;;;;;;;;;5111058;28;20227;-74
2022/06/23 11:59:32;;;;;;;7.47;2.22;;;;;;;;;;5110541;28;20520;-73
2022/06/23 12:02:19;;;;;;;7.13;2.13;;;;;;;;;;5111129;28;20686;-74
2022/06/23 12:04:53;;;;;;;6.65;2.00;;;;;;;;;;5111271;28;20204;-73
2022/06/23 12:07:20;;;;;;;6.57;2.10;;;;;;;;;;5110775;28;20451;-74
2022/06/23 12:12:38;;;;;;;8.10;2.10;;;;;;;;;;5091978;28;20256;-74
2022/06/23 12:15:06;;;;;;;5.90;2.17;;;;;;;;;;5091490;28;20236;-74
2022/06/23 12:17:35;;;;;;;8.27;2.35;;;;;;;;;;5082795;28;20213;-74
2022/06/23 12:20:23;;;;;;;6.95;2.15;;;;;;;;;;5071837;28;20249;-74
2022/06/23 12:23:07;;;;;;;4.65;2.35;;;;;;;;;;5071346;28;20313;-74
2022/06/23 12:25:46;;;;;;;3.65;1.60;;;;;;;;;;5070850;28;20252;-75
2022/06/23 12:28:21;;;;;;;3.72;1.90;;;;;;;;;;5071475;28;20201;-74
2022/06/23 12:30:57;;;;;;;5.28;1.88;;;;;;;;;;5071590;28;20252;-74
2022/06/23 12:33:31;;;;;;;9.10;3.17;;;;;;;;;;5071040;28;20264;-74
2022/06/23 12:36:18;;;;;;;8.18;2.20;;;;;;;;;;5052567;28;20231;-74
2022/06/23 12:38:53;;;;;;;5.45;2.17;;;;;;;;;;5069886;28;20256;-75
2022/06/23 12:41:26;;;;;;;3.67;1.77;;;;;;;;;;5069637;28;20248;-74
2022/06/23 12:44:12;;;;;;;7.55;2.20;;;;;;;;;;5081882;28;20705;-74
2022/06/23 12:46:47;;;;;;;4.93;1.70;;;;;;;;;;5090019;28;20576;-74
2022/06/23 12:49:36;;;;;;;7.70;1.90;;;;;;;;;;5090381;28;20200;-75
2022/06/23 12:52:23;;;;;;;3.92;1.63;;;;;;;;;;5089777;28;20646;-72
2022/06/23 12:54:53;;;;;;;6.70;1.90;;;;;;;;;;5088800;28;20204;-74
2022/06/23 12:57:28;;;;;;;4.57;2.15;;;;;;;;;;5086932;28;20622;-74
2022/06/23 12:59:58;;;;;;;5.40;2.10;;;;;;;;;;5088298;28;20204;-73
2022/06/23 13:02:48;;;;;;;3.60;1.85;;;;;;;;;;5087370;28;20234;-74
2022/06/23 13:05:25;;;;;;;4.72;1.77;;;;;;;;;;5075620;28;20367;-74
2022/06/23 13:07:52;;;;;;;4.07;1.80;;;;;;;;;;5088987;28;20185;-75
2022/06/23 13:10:23;;;;;;;5.00;1.90;;;;;;;;;;5088400;28;20239;-75
2022/06/23 13:13:00;;;;;;;4.22;1.48;;;;;;;;;;5087671;28;20251;-75
2022/06/23 13:15:28;;;;;;;4.55;1.70;;;;;;;;;;5087540;28;20227;-75
2022/06/23 13:18:09;;;;;;;4.53;1.75;;;;;;;;;;5087225;28;20227;-74
2022/06/23 13:20:45;;;;;;;4.20;1.50;;;;;;;;;;5087967;28;20640;-74
2022/06/23 13:23:36;;;;;;;3.60;1.60;;;;;;;;;;5088352;28;20216;-74
2022/06/23 13:26:06;;;;;;;2.97;1.45;;;;;;;;;;5075810;28;20214;-74
2022/06/23 13:28:37;;;;;;;6.80;1.80;;;;;;;;;;5088218;28;20232;-74
2022/06/23 13:31:12;;;;;;;6.43;1.98;;;;;;;;;;5088349;28;20599;-73
2022/06/23 13:33:48;;;;;;;4.32;1.80;;;;;;;;;;5088093;28;20590;-74
2022/06/23 13:36:20;;;;;;;3.00;1.52;;;;;;;;;;5088712;28;20228;-74
2022/06/23 13:38:47;;;;;;;6.32;1.90;;;;;;;;;;5088695;28;20245;-73
2022/06/23 13:41:37;;;;;;;4.55;1.60;;;;;;;;;;5089105;28;20615;-74
2022/06/23 13:44:25;;;;;;;2.40;1.40;;;;;;;;;;5070525;28;20659;-74
2022/06/23 13:47:04;;;;;;;5.38;2.00;;;;;;;;;;5077672;28;20200;-74
2022/06/23 13:49:41;;;;;;;5.05;1.98;;;;;;;;;;5110366;28;20203;-73
2022/06/23 13:52:22;;;;;;;4.45;1.70;;;;;;;;;;5108965;28;20198;-74
2022/06/23 13:54:50;;;;;;;6.95;1.80;;;;;;;;;;5073099;28;20289;-74
2022/06/23 13:57:36;;;;;;;3.30;1.65;;;;;;;;;;5080698;28;20719;-75
2022/06/23 14:00:06;;;;;;;5.40;1.77;;;;;;;;;;5089672;28;20200;-74
2022/06/23 14:02:37;;;;;;;3.92;1.83;;;;;;;;;;5090100;28;20697;-74
2022/06/23 14:05:05;;;;;;;6.82;1.90;;;;;;;;;;5091160;28;20228;-75
2022/06/23 14:07:58;;;;;;;3.40;1.60;;;;;;;;;;5090753;28;20231;-74
2022/06/23 14:10:36;;;;;;;3.38;1.60;;;;;;;;;;5052311;28;20244;-73
2022/06/23 14:13:16;;;;;;;7.25;1.83;;;;;;;;;;5089496;28;20626;-74
2022/06/23 14:15:43;;;;;;;3.60;1.55;;;;;;;;;;5089251;28;20238;-73
2022/06/23 14:18:22;;;;;;;8.88;1.77;;;;;;;;;;5090759;28;20232;-75
2022/06/23 14:21:02;;;;;;;4.72;2.00;;;;;;;;;;5090756;28;20587;-75
2022/06/23 14:23:49;;;;;;;5.65;1.90;;;;;;;;;;5090352;28;20228;-74
2022/06/23 14:26:23;;;;;;;3.83;1.75;;;;;;;;;;5089483;28;20248;-74
2022/06/23 14:28:56;;;;;;;7.70;1.92;;;;;;;;;;5090066;28;20209;-74
2022/06/23 14:31:28;;;;;;;5.95;2.00;;;;;;;;;;5089516;28;20204;-74
2022/06/23 14:34:01;;;;;;;4.10;1.70;;;;;;;;;;5089419;28;20224;-74
2022/06/23 14:36:42;;;;;;;3.33;1.65;;;;;;;;;;5071734;28;20239;-74
2022/06/23 14:39:16;;;;;;;4.68;2.00;;;;;;;;;;5090149;28;20230;-74
2022/06/23 14:41:49;;;;;;;5.90;1.85;;;;;;;;;;5083519;28;20217;-75
2022/06/23 14:44:25;;;;;;;4.88;1.70;;;;;;;;;;5070108;28;20266;-75
2022/06/23 14:46:55;;;;;;;5.80;1.80;;;;;;;;;;5070707;28;20618;-75
2022/06/23 14:49:22;;;;;;;3.50;1.63;;;;;;;;;;5070631;28;20208;-75
2022/06/23 14:52:16;;;;;;;4.72;2.03;;;;;;;;;;5070754;28;20308;-75
2022/06/23 14:54:52;;;;;;;5.22;1.90;;;;;;;;;;5067878;28;20205;-74
2022/06/23 14:57:32;;;;;;;6.90;1.80;;;;;;;;;;5070752;28;20250;-74
2022/06/23 15:00:21;;;;;;;5.82;1.73;;;;;;;;;;5070483;28;20212;-74
2022/06/23 15:03:05;;;;;;;4.85;2.03;;;;;;;;;;5069798;28;20728;-74
2022/06/23 15:05:52;;;;;;;4.72;1.85;;;;;;;;;;5069311;28;20747;-75
2022/06/23 15:08:24;;;;;;;6.82;2.05;;;;;;;;;;5069093;28;20194;-73
2022/06/23 15:10:58;;;;;;;4.07;2.03;;;;;;;;;;5070042;28;20240;-75
2022/06/23 15:13:29;;;;;;;5.93;1.90;;;;;;;;;;5069827;28;20275;-74
2022/06/23 15:15:59;;;;;;;5.05;1.70;;;;;;;;;;5069576;28;20224;-74
2022/06/23 15:18:30;;;;;;;5.80;1.98;;;;;;;;;;5051035;28;20221;-74
2022/06/23 15:24:01;;;;;;;6.63;1.90;;;;;;;;;;5073156;28;20225;-73
2022/06/23 15:26:37;;;;;;;5.22;1.88;;;;;;;;;;5072685;28;20205;-74
2022/06/23 15:29:10;;;;;;;5.72;2.25;;;;;;;;;;5072665;28;20275;-74
2022/06/23 15:31:49;;;;;;;3.90;1.83;;;;;;;;;;5076659;28;20204;-74
2022/06/23 15:34:25;;;;;;;5.18;1.85;;;;;;;;;;5088657;28;20224;-74
2022/06/23 15:37:02;;;;;;;8.95;2.00;;;;;;;;;;5071969;28;20248;-74
2022/06/23 15:39:38;;;;;;;6.07;1.80;;;;;;;;;;5079446;28;20231;-74